createdAt,value
2019-03-04T00:00:59.860Z,70.57
2019-03-04T00:03:27.771Z,70.23
2019-03-04T00:05:54.419Z,70.25
2019-03-04T00:08:20.755Z,70.30
2019-03-04T00:10:47.116Z,69.99
2019-03-04T00:13:13.694Z,70.10
2019-03-04T00:15:40.295Z,70.13
2019-03-04T00:18:06.927Z,69.84
2019-03-04T00:20:33.326Z,69.68
2019-03-04T00:22:59.740Z,69.61
2019-03-04T00:25:26.159Z,69.44
2019-03-04T00:27:52.492Z,69.24
2019-03-04T00:30:19.195Z,69.30
2019-03-04T00:32:46.348Z,69.11
2019-03-04T00:35:12.950Z,69.15
2019-03-04T00:37:39.400Z,68.98
2019-03-04T00:40:15.336Z,68.89
2019-03-04T00:42:42.218Z,68.99
2019-03-04T00:45:10.799Z,68.89
2019-03-04T00:47:37.111Z,69.06
2019-03-04T00:50:13.596Z,69.06
2019-03-04T00:52:40.149Z,69.00
2019-03-04T00:55:08.784Z,69.15
2019-03-04T00:57:35.209Z,69.32
2019-03-04T01:00:04.423Z,69.47
2019-03-04T01:02:30.763Z,69.48
2019-03-04T01:04:57.108Z,69.47
2019-03-04T01:07:23.407Z,69.47
2019-03-04T01:09:49.875Z,69.35
2019-03-04T01:12:16.225Z,69.46
2019-03-04T01:14:42.608Z,69.52
2019-03-04T01:17:08.841Z,69.71
2019-03-04T01:19:35.090Z,69.80
2019-03-04T01:22:01.435Z,69.91
2019-03-04T01:24:28.124Z,70.04
2019-03-04T01:26:54.493Z,70.06
2019-03-04T01:29:20.805Z,70.01
2019-03-04T01:31:47.142Z,70.13
2019-03-04T01:34:13.433Z,70.35
2019-03-04T01:36:39.738Z,70.08
2019-03-04T01:39:06.554Z,70.16
2019-03-04T01:41:32.852Z,70.11
2019-03-04T01:43:59.282Z,70.06
2019-03-04T01:46:25.962Z,69.98
2019-03-04T01:48:52.296Z,69.78
2019-03-04T01:51:18.611Z,69.95
2019-03-04T01:53:44.980Z,69.87
2019-03-04T01:56:11.264Z,69.74
2019-03-04T01:58:37.573Z,69.90
2019-03-04T02:01:04.342Z,69.68
2019-03-04T02:03:30.745Z,69.68
2019-03-04T02:05:57.235Z,69.50
2019-03-04T02:08:23.412Z,69.47
2019-03-04T02:10:49.711Z,69.48
2019-03-04T02:13:16.170Z,69.44
2019-03-04T02:15:42.564Z,69.23
2019-03-04T02:18:08.948Z,69.06
2019-03-04T02:20:35.231Z,68.65
2019-03-04T02:23:01.700Z,68.67
2019-03-04T02:25:45.660Z,68.63
2019-03-04T02:28:11.970Z,68.52
2019-03-04T02:30:38.401Z,68.54
2019-03-04T02:33:05.095Z,68.54
2019-03-04T02:35:31.609Z,68.63
2019-03-04T02:37:58.051Z,68.62
2019-03-04T02:40:24.331Z,68.51
2019-03-04T02:42:50.745Z,68.54
2019-03-04T02:45:18.380Z,68.43
2019-03-04T02:47:45.514Z,68.33
2019-03-04T02:50:12.984Z,68.16
2019-03-04T02:52:39.275Z,68.09
2019-03-04T02:55:06.721Z,67.79
2019-03-04T02:57:33.237Z,67.70
2019-03-04T02:59:59.549Z,67.67
2019-03-04T03:02:26.036Z,67.60
2019-03-04T03:04:52.495Z,67.53
2019-03-04T03:07:18.908Z,67.61
2019-03-04T03:09:45.360Z,67.59
2019-03-04T03:12:12.003Z,67.58
2019-03-04T03:14:38.427Z,67.61
2019-03-04T03:17:04.707Z,67.50
2019-03-04T03:19:31.029Z,67.58
2019-03-04T03:21:57.352Z,67.36
2019-03-04T03:24:23.789Z,67.40
2019-03-04T03:26:50.080Z,67.43
2019-03-04T03:29:16.827Z,67.46
2019-03-04T03:31:43.529Z,67.31
2019-03-04T03:34:09.959Z,67.26
2019-03-04T03:36:36.352Z,67.29
2019-03-04T03:39:04.668Z,67.33
2019-03-04T03:41:30.990Z,67.41
2019-03-04T03:43:57.493Z,67.44
2019-03-04T03:46:23.784Z,67.52
2019-03-04T03:48:50.322Z,67.57
2019-03-04T03:51:16.630Z,67.71
2019-03-04T03:53:43.203Z,67.79
2019-03-04T03:56:10.249Z,67.71
2019-03-04T03:58:37.166Z,67.68
2019-03-04T04:01:03.487Z,67.58
2019-03-04T04:03:29.982Z,67.56
2019-03-04T04:05:56.411Z,67.53
2019-03-04T04:08:22.926Z,67.49
2019-03-04T04:10:49.562Z,67.48
2019-03-04T04:13:16.100Z,67.41
2019-03-04T04:15:42.840Z,67.20
2019-03-04T04:18:09.242Z,67.39
2019-03-04T04:20:35.785Z,67.43
2019-03-04T04:23:02.298Z,67.29
2019-03-04T04:25:28.603Z,67.43
2019-03-04T04:27:55.000Z,67.25
2019-03-04T04:30:26.576Z,67.10
2019-03-04T04:32:53.150Z,67.25
2019-03-04T04:35:19.617Z,67.28
2019-03-04T04:37:46.043Z,67.24
2019-03-04T04:40:13.250Z,67.17
2019-03-04T04:42:39.904Z,67.11
2019-03-04T04:45:07.746Z,67.02
2019-03-04T04:47:34.349Z,67.10
2019-03-04T04:50:01.190Z,67.20
2019-03-04T04:52:27.587Z,67.22
2019-03-04T04:54:54.129Z,67.03
2019-03-04T04:57:20.639Z,66.81
2019-03-04T04:59:47.231Z,67.02
2019-03-04T05:02:13.691Z,67.11
2019-03-04T05:04:40.404Z,67.03
2019-03-04T05:07:07.245Z,67.05
2019-03-04T05:09:33.627Z,67.04
2019-03-04T05:11:59.932Z,67.16
2019-03-04T05:14:26.447Z,67.09
2019-03-04T05:16:52.946Z,67.05
2019-03-04T05:19:19.522Z,67.00
2019-03-04T05:21:45.923Z,66.91
2019-03-04T05:24:12.480Z,66.50
2019-03-04T05:26:39.061Z,66.33
2019-03-04T05:29:05.560Z,66.03
2019-03-04T05:31:32.188Z,65.72
2019-03-04T05:33:58.581Z,65.56
2019-03-04T05:36:24.954Z,65.31
2019-03-04T05:38:51.363Z,64.91
2019-03-04T05:41:17.828Z,64.86
2019-03-04T05:43:44.154Z,64.62
2019-03-04T05:46:10.743Z,64.50
2019-03-04T05:48:37.045Z,64.78
2019-03-04T05:51:03.754Z,64.72
2019-03-04T05:53:30.246Z,64.81
2019-03-04T05:55:56.726Z,64.40
2019-03-04T05:58:23.210Z,64.50
2019-03-04T06:01:12.019Z,64.00
2019-03-04T06:03:38.504Z,63.97
2019-03-04T06:06:04.808Z,63.69
2019-03-04T06:08:31.507Z,63.94
2019-03-04T06:10:59.600Z,63.95
2019-03-04T06:13:26.237Z,63.83
2019-03-04T06:15:52.766Z,64.08
2019-03-04T06:18:19.363Z,63.88
2019-03-04T06:20:45.941Z,64.20
2019-03-04T06:23:12.633Z,64.36
2019-03-04T06:25:38.987Z,64.48
2019-03-04T06:28:05.427Z,64.44
2019-03-04T06:30:32.811Z,64.42
2019-03-04T06:32:59.304Z,64.61
2019-03-04T06:35:26.544Z,64.74
2019-03-04T06:37:53.311Z,64.66
2019-03-04T06:40:20.576Z,64.61
2019-03-04T06:42:47.099Z,64.29
2019-03-04T06:45:15.604Z,64.46
2019-03-04T06:47:42.091Z,64.19
2019-03-04T06:50:50.664Z,64.49
2019-03-04T06:53:41.099Z,63.92
2019-03-04T06:56:22.463Z,64.07
2019-03-04T06:59:24.452Z,63.86
2019-03-04T07:02:11.207Z,63.83
2019-03-04T07:04:47.462Z,63.80
2019-03-04T07:07:13.827Z,63.83
2019-03-04T07:09:40.161Z,63.75
2019-03-04T07:12:06.736Z,63.23
2019-03-04T07:14:33.120Z,63.32
2019-03-04T07:16:59.651Z,63.81
2019-03-04T07:19:26.187Z,63.13
2019-03-04T07:21:52.589Z,63.74
2019-03-04T07:24:19.335Z,62.98
2019-03-04T07:26:45.861Z,63.32
2019-03-04T07:29:12.405Z,62.78
2019-03-04T07:31:38.948Z,62.08
2019-03-04T07:34:05.441Z,62.64
2019-03-04T07:36:31.829Z,61.35
2019-03-04T07:38:58.882Z,62.16
2019-03-04T07:41:26.316Z,61.74
2019-03-04T07:43:52.918Z,61.04
2019-03-04T07:46:19.692Z,60.79
2019-03-04T07:48:46.429Z,60.71
2019-03-04T07:51:15.615Z,60.14
2019-03-04T07:53:46.262Z,58.86
2019-03-04T07:56:10.531Z,59.99
2019-03-04T07:58:36.976Z,59.03
2019-03-04T08:01:04.231Z,58.76
2019-03-04T08:03:30.564Z,57.58
2019-03-04T08:05:57.771Z,56.63
2019-03-04T08:08:24.328Z,57.07
2019-03-04T08:11:17.392Z,56.73
2019-03-04T08:13:52.603Z,55.49
2019-03-04T08:16:18.933Z,56.03
2019-03-04T08:18:45.227Z,55.55
2019-03-04T08:21:11.836Z,55.43
2019-03-04T08:23:38.373Z,54.67
2019-03-04T08:26:04.978Z,54.22
2019-03-04T08:28:31.308Z,52.91
2019-03-04T08:30:57.856Z,52.11
2019-03-04T08:33:24.452Z,51.75
2019-03-04T08:35:51.198Z,52.00
2019-03-04T08:38:17.544Z,51.36
2019-03-04T08:40:44.118Z,51.92
2019-03-04T08:43:10.623Z,51.23
2019-03-04T08:45:37.132Z,50.37
2019-03-04T08:48:03.682Z,48.92
2019-03-04T08:50:30.188Z,49.87
2019-03-04T08:52:56.638Z,50.39
2019-03-04T08:55:22.923Z,48.83
2019-03-04T08:57:49.667Z,48.94
2019-03-04T09:00:27.766Z,48.73
2019-03-04T09:02:54.394Z,49.92
2019-03-04T09:05:20.941Z,48.93
2019-03-04T09:07:47.476Z,48.47
2019-03-04T09:10:19.651Z,47.87
2019-03-04T09:12:46.149Z,47.72
2019-03-04T09:15:14.344Z,49.49
2019-03-04T09:17:41.019Z,48.45
2019-03-04T09:20:13.831Z,47.74
2019-03-04T09:22:40.223Z,47.77
2019-03-04T09:25:12.151Z,47.22
2019-03-04T09:27:38.649Z,48.64
2019-03-04T09:30:12.714Z,47.19
2019-03-04T09:32:39.302Z,49.68
2019-03-04T09:35:11.314Z,49.38
2019-03-04T09:37:39.454Z,49.03
2019-03-04T09:40:13.823Z,47.57
2019-03-04T09:42:40.954Z,48.28
2019-03-04T09:45:11.187Z,49.07
2019-03-04T09:47:37.487Z,47.88
2019-03-04T09:50:12.747Z,47.28
2019-03-04T09:52:39.307Z,48.86
2019-03-04T09:55:08.795Z,48.85
2019-03-04T09:57:35.159Z,50.09
2019-03-04T10:00:02.112Z,50.63
2019-03-04T10:02:28.698Z,50.13
2019-03-04T10:05:18.359Z,49.96
2019-03-04T10:07:56.392Z,49.66
2019-03-04T10:10:31.255Z,49.36
2019-03-04T10:13:17.835Z,50.24
2019-03-04T10:15:56.183Z,49.88
2019-03-04T10:18:51.045Z,48.87
2019-03-04T10:21:43.741Z,49.19
2019-03-04T10:24:18.537Z,50.57
2019-03-04T10:27:11.720Z,50.42
2019-03-04T10:30:12.691Z,48.66
2019-03-04T10:33:13.634Z,50.17
2019-03-04T10:36:04.205Z,49.54
2019-03-04T10:39:00.861Z,48.36
2019-03-04T10:41:52.971Z,48.43
2019-03-04T10:44:50.860Z,48.59
2019-03-04T10:47:17.181Z,47.55
2019-03-04T10:49:43.464Z,48.05
2019-03-04T10:52:10.178Z,47.36
2019-03-04T10:54:36.730Z,48.66
2019-03-04T10:57:03.144Z,48.88
2019-03-04T10:59:29.597Z,47.73
2019-03-04T11:01:56.137Z,47.23
2019-03-04T11:04:22.715Z,48.03
2019-03-04T11:06:49.097Z,47.94
2019-03-04T11:09:15.706Z,47.67
2019-03-04T11:11:42.786Z,47.55
2019-03-04T11:14:09.203Z,47.34
2019-03-04T11:16:35.597Z,48.18
2019-03-04T11:19:02.016Z,48.54
2019-03-04T11:21:28.419Z,48.61
2019-03-04T11:23:54.932Z,47.89
2019-03-04T11:26:21.467Z,47.24
2019-03-04T11:28:48.031Z,47.82
2019-03-04T11:31:14.547Z,48.17
2019-03-04T11:33:41.072Z,47.84
2019-03-04T11:36:07.655Z,47.40
2019-03-04T11:38:41.330Z,48.41
2019-03-04T11:41:12.398Z,48.64
2019-03-04T11:43:38.687Z,48.05
2019-03-04T11:46:05.267Z,47.70
2019-03-04T11:48:31.975Z,48.55
2019-03-04T11:50:58.613Z,47.37
2019-03-04T11:53:25.253Z,49.23
2019-03-04T11:55:53.481Z,48.68
2019-03-04T11:58:20.267Z,48.75
2019-03-04T12:00:49.571Z,49.22
2019-03-04T12:03:16.295Z,48.35
2019-03-04T12:05:42.726Z,49.17
2019-03-04T12:08:09.175Z,49.32
2019-03-04T12:10:43.991Z,48.86
2019-03-04T12:13:13.504Z,48.12
2019-03-04T12:15:40.101Z,48.86
2019-03-04T12:18:06.419Z,48.36
2019-03-04T12:20:32.826Z,47.73
2019-03-04T12:22:59.550Z,48.07
2019-03-04T12:25:25.980Z,48.19
2019-03-04T12:27:55.056Z,48.05
2019-03-04T12:30:23.913Z,48.15
2019-03-04T12:32:50.773Z,49.38
2019-03-04T12:35:17.375Z,48.30
2019-03-04T12:37:44.530Z,47.86
2019-03-04T12:40:15.883Z,47.29
2019-03-04T12:42:42.492Z,47.32
2019-03-04T12:45:15.370Z,46.68
2019-03-04T12:47:42.070Z,47.29
2019-03-04T12:50:31.004Z,46.98
2019-03-04T12:52:58.135Z,46.92
2019-03-04T12:55:24.680Z,46.77
2019-03-04T12:57:54.050Z,46.74
2019-03-04T13:00:32.922Z,47.58
2019-03-04T13:02:59.308Z,47.00
2019-03-04T13:05:25.803Z,46.70
2019-03-04T13:07:52.383Z,47.22
2019-03-04T13:10:21.823Z,47.03
2019-03-04T13:12:48.779Z,47.32
2019-03-04T13:15:36.796Z,47.29
2019-03-04T13:18:11.731Z,47.55
2019-03-04T13:20:38.543Z,47.03
2019-03-04T13:23:05.671Z,47.54
2019-03-04T13:25:32.147Z,47.59
2019-03-04T13:28:07.723Z,47.56
2019-03-04T13:30:33.582Z,47.07
2019-03-04T13:33:00.123Z,47.81
2019-03-04T13:35:44.206Z,47.90
2019-03-04T13:38:10.897Z,47.59
2019-03-04T13:40:37.375Z,48.02
2019-03-04T13:43:04.111Z,47.70
2019-03-04T13:45:30.852Z,47.70
2019-03-04T13:47:57.488Z,47.24
2019-03-04T13:50:33.340Z,46.61
2019-03-04T13:52:59.724Z,47.12
2019-03-04T13:55:26.692Z,46.28
2019-03-04T13:57:56.421Z,46.33
2019-03-04T14:00:38.766Z,45.85
2019-03-04T14:03:05.558Z,45.69
2019-03-04T14:05:32.098Z,45.82
2019-03-04T14:07:58.631Z,45.60
2019-03-04T14:10:39.801Z,44.76
2019-03-04T14:13:06.479Z,44.22
2019-03-04T14:15:38.276Z,43.24
2019-03-04T14:18:05.255Z,43.46
2019-03-04T14:20:31.684Z,43.19
2019-03-04T14:22:58.224Z,43.09
2019-03-04T14:25:24.749Z,42.72
2019-03-04T14:27:51.235Z,42.65
2019-03-04T14:30:20.580Z,42.76
2019-03-04T14:32:47.134Z,42.13
2019-03-04T14:35:13.529Z,41.89
2019-03-04T14:37:41.319Z,42.14
2019-03-04T14:40:12.117Z,41.30
2019-03-04T14:42:38.555Z,42.00
2019-03-04T14:45:10.402Z,40.88
2019-03-04T14:47:36.999Z,41.70
2019-03-04T14:50:10.183Z,41.38
2019-03-04T14:52:36.842Z,41.42
2019-03-04T14:55:08.576Z,40.72
2019-03-04T14:57:34.933Z,41.01
2019-03-04T15:00:04.052Z,41.05
2019-03-04T15:02:31.241Z,41.53
2019-03-04T15:04:57.873Z,40.21
2019-03-04T15:07:24.563Z,40.66
2019-03-04T15:09:51.140Z,39.94
2019-03-04T15:12:17.718Z,41.00
2019-03-04T15:14:44.305Z,41.15
2019-03-04T15:17:20.986Z,40.08
2019-03-04T15:19:47.591Z,40.54
2019-03-04T15:22:14.173Z,40.92
2019-03-04T15:24:40.696Z,40.88
2019-03-04T15:27:07.348Z,39.93
2019-03-04T15:29:34.224Z,40.11
2019-03-04T15:32:00.575Z,39.42
2019-03-04T15:34:26.958Z,38.47
2019-03-04T15:36:53.506Z,38.17
2019-03-04T15:39:23.213Z,39.54
2019-03-04T15:41:50.267Z,39.29
2019-03-04T15:44:16.807Z,39.60
2019-03-04T15:46:43.832Z,38.77
2019-03-04T15:49:10.252Z,39.18
2019-03-04T15:51:36.761Z,38.75
2019-03-04T15:54:03.892Z,38.79
2019-03-04T15:56:30.572Z,39.50
2019-03-04T15:58:57.077Z,40.11
2019-03-04T16:01:23.794Z,39.97
2019-03-04T16:03:50.200Z,39.53
2019-03-04T16:06:16.897Z,39.96
2019-03-04T16:08:44.044Z,39.81
2019-03-04T16:11:10.652Z,40.11
2019-03-04T16:13:37.358Z,40.30
2019-03-04T16:16:04.747Z,40.07
2019-03-04T16:18:31.088Z,39.90
2019-03-04T16:20:57.712Z,40.35
2019-03-04T16:23:24.016Z,40.21
2019-03-04T16:25:50.410Z,40.82
2019-03-04T16:28:21.548Z,40.90
2019-03-04T16:30:48.957Z,41.15
2019-03-04T16:33:15.594Z,41.56
2019-03-04T16:35:41.896Z,41.67
2019-03-04T16:38:08.573Z,41.67
2019-03-04T16:40:35.104Z,41.77
2019-03-04T16:43:01.451Z,41.83
2019-03-04T16:45:30.607Z,41.98
2019-03-04T16:47:57.087Z,42.59
2019-03-04T16:50:36.636Z,43.18
2019-03-04T16:53:11.339Z,43.50
2019-03-04T16:55:37.792Z,43.50
2019-03-04T16:58:04.427Z,43.50
2019-03-04T17:00:30.979Z,43.93
2019-03-04T17:02:57.378Z,43.96
2019-03-04T17:05:25.220Z,43.96
2019-03-04T17:07:51.620Z,43.93
2019-03-04T17:10:21.064Z,43.63
2019-03-04T17:12:47.579Z,43.50
2019-03-04T17:15:17.584Z,43.46
2019-03-04T17:17:44.034Z,43.86
2019-03-04T17:20:12.152Z,43.86
2019-03-04T17:22:38.705Z,44.08
2019-03-04T17:25:09.841Z,44.40
2019-03-04T17:27:36.128Z,44.16
2019-03-04T17:30:10.838Z,44.25
2019-03-04T17:32:37.391Z,44.25
2019-03-04T17:35:06.897Z,43.76
2019-03-04T17:37:33.214Z,44.02
2019-03-04T17:39:59.499Z,44.22
2019-03-04T17:42:26.018Z,44.10
2019-03-04T17:44:52.547Z,44.48
2019-03-04T17:47:19.361Z,44.70
2019-03-04T17:49:45.695Z,44.86
2019-03-04T17:52:12.039Z,44.49
2019-03-04T17:54:38.439Z,44.56
2019-03-04T17:57:04.848Z,44.60
2019-03-04T17:59:31.293Z,45.25
2019-03-04T18:01:57.545Z,45.53
2019-03-04T18:04:23.957Z,45.33
2019-03-04T18:06:50.492Z,45.62
2019-03-04T18:09:16.783Z,45.37
2019-03-04T18:11:43.171Z,45.63
2019-03-04T18:14:09.503Z,45.71
2019-03-04T18:16:35.823Z,45.71
2019-03-04T18:19:04.802Z,45.72
2019-03-04T18:21:33.123Z,45.48
2019-03-04T18:23:59.528Z,45.49
2019-03-04T18:26:31.342Z,45.61
2019-03-04T18:29:21.711Z,45.47
2019-03-04T18:31:59.655Z,45.50
2019-03-04T18:34:46.903Z,45.67
2019-03-04T18:37:43.158Z,46.06
2019-03-04T18:40:42.250Z,46.29
2019-03-04T18:43:29.360Z,46.14
2019-03-04T18:46:26.851Z,46.47
2019-03-04T18:48:58.236Z,46.29
2019-03-04T18:51:25.952Z,46.45
2019-03-04T18:53:58.247Z,46.43
2019-03-04T18:56:24.758Z,46.54
2019-03-04T18:58:51.069Z,46.40
2019-03-04T19:01:17.912Z,46.51
2019-03-04T19:03:44.511Z,46.81
2019-03-04T19:06:12.818Z,47.45
2019-03-04T19:08:39.243Z,47.67
2019-03-04T19:11:05.729Z,47.70
2019-03-04T19:13:32.031Z,48.74
2019-03-04T19:15:58.475Z,49.69
2019-03-04T19:18:24.941Z,51.21
2019-03-04T19:20:51.747Z,51.93
2019-03-04T19:23:18.048Z,52.80
2019-03-04T19:25:44.575Z,53.51
2019-03-04T19:28:11.459Z,53.81
2019-03-04T19:30:38.241Z,54.33
2019-03-04T19:33:04.815Z,54.73
2019-03-04T19:35:31.453Z,55.39
2019-03-04T19:37:57.841Z,56.79
2019-03-04T19:40:24.355Z,58.09
2019-03-04T19:42:51.028Z,59.04
2019-03-04T19:45:18.572Z,60.91
2019-03-04T19:47:45.165Z,61.39
2019-03-04T19:50:11.809Z,62.27
2019-03-04T19:52:38.201Z,63.27
2019-03-04T19:55:09.321Z,63.39
2019-03-04T19:57:35.650Z,64.41
2019-03-04T20:00:10.741Z,64.57
2019-03-04T20:02:37.227Z,65.54
2019-03-04T20:05:05.023Z,65.73
2019-03-04T20:07:31.349Z,65.42
2019-03-04T20:09:58.209Z,66.33
2019-03-04T20:12:24.628Z,66.61
2019-03-04T20:14:51.117Z,66.20
2019-03-04T20:17:17.487Z,66.61
2019-03-04T20:19:44.195Z,66.13
2019-03-04T20:22:10.528Z,66.11
2019-03-04T20:24:37.140Z,65.93
2019-03-04T20:27:03.795Z,66.08
2019-03-04T20:29:30.236Z,65.67
2019-03-04T20:31:56.629Z,65.53
2019-03-04T20:34:23.180Z,66.40
2019-03-04T20:36:49.789Z,65.87
2019-03-04T20:39:16.724Z,65.76
2019-03-04T20:41:43.473Z,66.04
2019-03-04T20:44:11.340Z,66.89
2019-03-04T20:46:37.873Z,67.04
2019-03-04T20:49:04.415Z,65.84
2019-03-04T20:51:31.361Z,65.57
2019-03-04T20:53:57.862Z,67.04
2019-03-04T20:56:24.250Z,67.71
2019-03-04T20:58:50.825Z,67.84
2019-03-04T21:01:18.342Z,68.03
2019-03-04T21:03:44.772Z,67.37
2019-03-04T21:06:11.172Z,67.23
2019-03-04T21:08:37.614Z,68.06
2019-03-04T21:11:04.115Z,68.11
2019-03-04T21:13:35.828Z,67.87
2019-03-04T21:15:59.267Z,67.78
2019-03-04T21:18:26.092Z,67.88
2019-03-04T21:20:53.055Z,67.96
2019-03-04T21:23:19.481Z,68.38
2019-03-04T21:25:56.524Z,68.26
2019-03-04T21:28:31.579Z,68.27
2019-03-04T21:31:45.520Z,69.04
2019-03-04T21:34:35.834Z,68.67
2019-03-04T21:37:24.790Z,69.41
2019-03-04T21:40:15.373Z,69.71
2019-03-04T21:42:53.012Z,69.33
2019-03-04T21:45:41.842Z,69.72
2019-03-04T21:48:17.096Z,68.99
2019-03-04T21:51:22.549Z,69.78
2019-03-04T21:53:51.282Z,69.97
2019-03-04T21:56:38.470Z,70.12
2019-03-04T21:59:06.553Z,70.12
2019-03-04T22:01:47.972Z,69.85
2019-03-04T22:04:14.424Z,70.28
2019-03-04T22:06:41.280Z,69.64
2019-03-04T22:09:08.501Z,69.61
2019-03-04T22:11:35.274Z,68.99
2019-03-04T22:14:01.826Z,68.95
2019-03-04T22:16:28.989Z,69.33
2019-03-04T22:18:55.357Z,69.00
2019-03-04T22:21:21.862Z,69.27
2019-03-04T22:23:48.955Z,69.20
2019-03-04T22:26:15.469Z,68.98
2019-03-04T22:28:41.839Z,69.48
2019-03-04T22:31:08.276Z,68.65
2019-03-04T22:33:34.754Z,67.97
2019-03-04T22:36:01.252Z,68.14
2019-03-04T22:38:28.170Z,67.75
2019-03-04T22:40:54.535Z,68.21
2019-03-04T22:43:21.255Z,68.07
2019-03-04T22:45:47.725Z,67.54
2019-03-04T22:48:14.042Z,67.90
2019-03-04T22:50:40.548Z,67.68
2019-03-04T22:53:07.057Z,67.55
2019-03-04T22:55:37.393Z,67.92
2019-03-04T22:58:04.273Z,67.43
2019-03-04T23:00:51.783Z,67.69
2019-03-04T23:06:12.275Z,68.01
2019-03-04T23:08:38.668Z,68.15
2019-03-04T23:11:05.161Z,68.12
2019-03-04T23:14:01.274Z,67.87
2019-03-04T23:16:30.878Z,68.30
2019-03-04T23:18:57.539Z,67.60
2019-03-04T23:21:23.836Z,67.75
2019-03-04T23:23:50.383Z,67.52
2019-03-04T23:26:16.677Z,67.97
2019-03-04T23:28:43.040Z,67.84
2019-03-04T23:31:10.156Z,67.98
2019-03-04T23:33:36.675Z,67.90
2019-03-04T23:36:03.491Z,67.62
2019-03-04T23:38:29.997Z,67.39
2019-03-04T23:40:56.444Z,68.19
2019-03-04T23:43:23.040Z,67.84
2019-03-04T23:45:49.473Z,68.36
2019-03-04T23:48:15.763Z,67.82
2019-03-04T23:50:42.769Z,67.57
2019-03-04T23:53:09.406Z,67.54
2019-03-04T23:55:35.915Z,67.13
2019-03-04T23:58:02.348Z,67.15
